Latest Weather Observations for Griffith

IDN60801

Issued at 7:32 pm EST Sunday 1 May 2016 (issued every 30 minutes, with the page automatically refreshed every 10 minutes)

About weather observations | Map of weather stations | Latest weather observations for NSW | Other Formats
Station Details ID: 075041 Name: GRIFFITH AIRPORT AWS Lat: -34.25 Lon: 146.07 Height: 134.0 m
Data from the previous 72 hours. | See also: Recent months at Griffith
Date/Time
EST
Temp
°C
App
Temp
°C
Dew
Point
Rel
Hum
%
Delta-T
°C
Wind Press
QNH
hPa
Press
MSL
hPa
Rain
since 9 am
mm
Dir
 
Spd
km/h
Gust
km/h
Spd
kts
Gust
kts
01/07:30pm 14.0 10.6 6.1 59 3.8 SW 13 17 7 9 1017.8 1017.8 0.0
01/07:00pm 14.3 11.0 6.2 58 3.9 SW 13 15 7 8 1017.5 1017.5 0.0
01/06:30pm 14.7 11.1 6.8 59 3.9 SW 15 20 8 11 1017.1 1017.0 0.0
01/06:00pm 15.6 12.4 6.9 56 4.3 SW 13 17 7 9 1016.6 1016.5 0.0
01/05:30pm 16.5 12.0 6.1 50 5.1 WSW 19 24 10 13 1016.2 1016.1 0.0
01/05:00pm 17.6 13.1 5.9 46 5.7 W 19 24 10 13 1015.9 1015.8 0.0
01/04:30pm 18.5 13.4 6.0 44 6.2 W 22 30 12 16 1015.8 1015.7 0.0
01/04:00pm 18.6 13.3 6.8 46 5.9 W 24 32 13 17 1015.5 1015.5 0.0
01/03:30pm 19.3 12.9 5.4 40 6.8 W 28 37 15 20 1015.5 1015.5 0.0
01/03:00pm 19.1 12.8 5.6 41 6.7 W 28 41 15 22 1015.3 1015.3 0.0
01/02:30pm 19.2 12.7 6.7 44 6.3 W 30 39 16 21 1015.0 1015.0 0.0
01/02:00pm 18.8 12.8 6.9 46 6.0 W 28 39 15 21 1014.9 1014.9 0.0
01/01:30pm 17.9 11.1 7.0 49 5.5 W 32 44 17 24 1015.1 1015.1 0.0
01/01:00pm 18.7 12.6 8.4 51 5.4 W 30 37 16 20 1015.1 1015.1 0.0
01/12:30pm 18.6 12.6 7.1 47 5.8 W 28 43 15 23 1015.3 1015.3 0.0
01/12:00pm 17.8 11.3 8.1 53 5.0 W 32 44 17 24 1015.6 1015.6 0.0
01/11:30am 17.9 11.2 8.2 53 5.0 W 33 43 18 23 1015.9 1015.8 0.0
01/11:00am 17.9 11.3 8.5 54 4.9 W 33 44 18 24 1015.8 1015.7 0.0
01/10:30am 17.9 11.6 9.0 56 4.7 W 32 44 17 24 1015.5 1015.5 0.0
01/10:00am 17.4 10.6 10.5 64 3.7 W 37 52 20 28 1015.6 1015.6 0.0
01/09:50am 17.4 10.9 10.5 64 3.7 W 35 54 19 29 1015.6 1015.4 0.0
01/09:30am 17.2 10.4 10.8 66 3.5 W 37 48 20 26 1015.2 1015.0 0.0
01/09:19am 17.2 11.8 11.0 67 3.4 W 30 52 16 28 1015.0 1014.8 0.0
01/09:00am 17.2 12.2 12.1 72 2.8 W 30 39 16 21 1014.8 1014.6 4.2
01/08:30am 17.3 12.2 12.0 71 2.9 WNW 30 39 16 21 1014.4 1014.2 4.2
01/08:00am 17.4 15.0 13.9 80 2.0 WNW 19 28 10 15 1013.9 1013.7 4.2
01/07:30am 17.2 15.3 14.1 82 1.8 WNW 17 22 9 12 1013.2 1013.0 4.0
01/07:00am 17.3 15.6 14.6 84 1.6 WNW 17 22 9 12 1012.8 1012.6 4.0
01/06:30am 17.9 16.5 15.5 86 1.4 WNW 17 24 9 13 1012.5 1012.3 4.0
01/06:00am 17.9 16.3 15.9 88 1.2 WNW 19 24 10 13 1011.9 1011.7 4.0
01/05:30am 18.5 15.4 15.7 84 1.7 NW 26 35 14 19 1011.4 1011.1 4.0
01/05:00am 18.0 16.5 15.3 84 1.6 NW 17 24 9 13 1010.7 1010.4 4.0
01/04:30am 18.1 15.4 15.7 86 1.4 N 24 33 13 18 1010.3 1010.0 4.0
01/04:00am 18.2 15.7 16.2 88 1.2 N 24 33 13 18 1010.0 1009.7 4.0
01/03:30am 18.3 15.2 16.5 89 1.1 N 28 35 15 19 1010.1 1009.8 4.0
01/03:00am 17.9 15.5 16.4 91 0.9 N 24 32 13 17 1010.5 1010.2 4.0
01/02:30am 18.0 15.3 16.7 92 0.8 N 26 33 14 18 1010.6 1010.3 4.0
01/02:00am 18.4 14.5 16.9 91 0.9 NNW 33 48 18 26 1011.8 1011.5 3.8
01/01:30am 20.0 17.6 19.0 94 0.6 NNW 30 46 16 25 1012.1 1011.9 2.4
01/01:00am 20.3 18.5 17.9 86 1.5 N 24 32 13 17 1011.3 1011.0 0.2
01/12:30am 21.1 19.7 17.1 78 2.5 N 20 24 11 13 1011.2 1010.9 0.0
01/12:00am 21.0 19.5 16.8 77 2.6 N 20 30 11 16 1011.4 1011.1 0.0
 
Date/Time
EST
Temp
°C
App
Temp
°C
Dew
Point
Rel
Hum
%
Delta-T
°C
Wind Press
QNH
hPa
Press
MSL
hPa
Rain
since 9 am
mm
Dir
 
Spd
km/h
Gust
km/h
Spd
kts
Gust
kts
30/11:30pm 20.8 19.4 16.6 77 2.6 NNE 19 24 10 13 1011.9 1011.7 0.0
30/11:00pm 20.6 19.8 16.2 76 2.7 NNE 15 22 8 12 1012.3 1012.1 0.0
30/10:30pm 20.6 19.2 15.6 73 3.0 NNE 17 20 9 11 1013.0 1012.8 0.0
30/10:00pm 20.7 19.2 15.3 71 3.2 NE 17 24 9 13 1013.4 1013.2 0.0
30/09:30pm 20.7 19.2 15.3 71 3.2 NE 17 20 9 11 1013.5 1013.3 0.0
30/09:00pm 20.7 19.3 15.5 72 3.1 NE 17 20 9 11 1013.6 1013.4 0.0
30/08:30pm 19.9 19.6 15.5 76 2.6 NE 11 15 6 8 1013.9 1013.7 0.0
30/08:00pm 19.3 18.8 15.8 80 2.1 NE 13 17 7 9 1014.1 1013.9 0.0
30/07:30pm 18.3 18.4 15.6 84 1.6 ENE 9 11 5 6 1014.3 1014.1 0.0
30/07:00pm 18.0 18.4 15.3 84 1.6 NE 7 9 4 5 1014.3 1014.1 0.0
30/06:30pm 18.8 19.1 15.1 79 2.2 N 7 7 4 4 1014.6 1014.4 0.0
30/06:00pm 20.4 20.5 14.5 69 3.5 N 7 7 4 4 1014.1 1013.9 0.0
30/05:30pm 22.3 22.4 15.4 65 4.1 NNW 9 11 5 6 1014.3 1014.1 0.0
30/05:00pm 23.6 23.2 15.1 59 5.1 NNW 11 17 6 9 1014.4 1014.2 0.0
30/04:30pm 24.2 24.0 15.7 59 5.2 NNW 11 15 6 8 1014.6 1014.4 0.0
30/04:00pm 24.1 23.4 15.3 58 5.3 NNW 13 19 7 10 1014.7 1014.5 0.0
30/03:30pm 24.0 23.8 15.8 60 5.0 NNW 11 19 6 10 1014.9 1014.7 0.0
30/03:00pm 23.8 23.9 15.6 60 5.0 NNW 9 17 5 9 1014.8 1014.6 0.0
30/02:30pm 23.1 23.4 15.9 64 4.4 WNW 9 11 5 6 1015.1 1014.9 0.0
30/02:00pm 22.4 22.2 15.7 66 4.0 NW 11 20 6 11 1015.4 1015.2 0.0
30/01:30pm 22.2 22.2 16.2 69 3.6 NW 11 20 6 11 1015.9 1015.6 0.0
30/01:00pm 21.6 21.2 16.1 71 3.3 WNW 13 20 7 11 1016.0 1015.7 0.0
30/12:30pm 21.3 21.8 16.5 74 2.9 NW 9 17 5 9 1016.5 1016.2 0.0
30/12:16pm 20.7 21.0 16.1 75 2.8 NNW 9 15 5 8 1016.8 1016.5 0.0
30/12:00pm 20.6 20.6 16.2 76 2.7 NW 11 17 6 9 1017.0 1016.7 0.0
30/11:30am 19.8 19.0 16.1 79 2.2 NW 15 19 8 10 1017.5 1017.2 0.0
30/11:00am 19.5 18.3 16.0 80 2.1 NW 17 20 9 11 1017.8 1017.5 0.0
30/10:30am 19.3 18.3 16.5 84 1.7 NW 17 22 9 12 1018.0 1017.7 0.0
30/10:00am 19.1 18.2 16.9 87 1.3 NW 17 20 9 11 1018.2 1017.9 0.0
30/09:30am 18.7 17.4 16.7 88 1.2 NW 19 24 10 13 1018.4 1018.2 0.0
30/09:01am 18.9 17.5 16.5 86 1.4 NNW 19 24 10 13 1018.4 1018.2 0.0
30/09:00am 18.9 17.5 16.5 86 1.4 NNW 19 24 10 13 1018.4 1018.2 13.4
30/08:30am 18.5 17.8 16.5 88 1.2 NNW 15 20 8 11 1018.3 1018.1 13.4
30/08:00am 18.0 18.6 16.9 93 0.7 N 9 13 5 7 1018.2 1017.9 13.4
30/07:30am 16.9 17.5 16.7 99 0.1 N 9 11 5 6 1017.7 1017.4 13.4
30/07:00am 17.3 17.9 16.8 97 0.3 NNW 9 11 5 6 1017.4 1017.1 13.4
30/06:30am 17.5 18.1 16.9 96 0.4 NNW 9 13 5 7 1017.3 1017.0 13.4
30/06:00am 17.4 17.9 16.6 95 0.5 NW 9 11 5 6 1017.1 1016.8 13.4
30/05:30am 17.5 18.1 16.7 95 0.5 NW 9 15 5 8 1016.9 1016.6 13.4
30/05:00am 17.7 17.8 16.6 93 0.7 NNW 11 15 6 8 1016.2 1015.9 13.4
30/04:30am 17.8 18.0 16.7 93 0.7 N 11 15 6 8 1015.6 1015.4 13.4
30/04:00am 17.5 18.9 16.5 94 0.6 NNE 4 7 2 4 1015.4 1015.2 13.4
30/03:30am 17.7 18.3 16.9 95 0.5 NNE 9 17 5 9 1015.5 1015.3 13.4
30/03:00am 17.6 18.0 17.3 98 0.2 NE 11 15 6 8 1015.3 1015.1 13.4
30/02:30am 17.3 18.9 17.0 98 0.2 E 4 7 2 4 1016.0 1015.7 13.4
30/02:00am 17.6 18.9 17.0 96 0.4 NNE 6 7 3 4 1016.2 1015.9 13.4
30/01:30am 17.7 19.4 17.1 96 0.4 NW 4 7 2 4 1016.5 1016.2 13.4
30/01:00am 17.9 18.7 17.3 96 0.4 N 9 13 5 7 1016.5 1016.2 13.4
30/12:30am 17.9 18.3 17.3 96 0.4 N 11 13 6 7 1016.5 1016.2 13.4
30/12:00am 17.9 18.6 17.1 95 0.5 N 9 13 5 7 1016.7 1016.4 13.4
 
Date/Time
EST
Temp
°C
App
Temp
°C
Dew
Point
Rel
Hum
%
Delta-T
°C
Wind Press
QNH
hPa
Press
MSL
hPa
Rain
since 9 am
mm
Dir
 
Spd
km/h
Gust
km/h
Spd
kts
Gust
kts
29/11:30pm 17.6 18.7 17.0 96 0.4 N 7 9 4 5 1017.0 1016.7 13.4
29/11:00pm 17.4 18.4 16.9 97 0.3 NNW 7 9 4 5 1017.3 1017.0 13.4
29/10:30pm 17.4 18.6 16.9 97 0.3 N 6 7 3 4 1017.4 1017.1 13.4
29/10:00pm 17.4 18.4 16.8 96 0.4 N 7 11 4 6 1017.5 1017.2 13.4
29/09:30pm 17.5 18.4 16.7 95 0.5 N 7 11 4 6 1017.2 1016.9 13.4
29/09:00pm 17.5 18.4 16.5 94 0.6 N 7 11 4 6 1017.1 1016.8 13.4
29/08:30pm 17.5 17.6 16.4 93 0.7 NNW 11 17 6 9 1017.0 1016.7 13.4
29/08:00pm 17.7 16.3 16.6 93 0.7 N 19 28 10 15 1016.7 1016.4 13.4
29/07:30pm 17.7 16.4 16.9 95 0.5 N 19 24 10 13 1017.0 1016.7 13.4
29/07:00pm 17.5 16.7 17.2 98 0.2 N 17 26 9 14 1017.0 1016.7 13.4
29/06:30pm 17.3 14.8 17.1 99 0.1 NNE 26 37 14 20 1017.0 1016.7 13.4
29/06:00pm 17.1 15.2 16.8 98 0.2 NNE 22 33 12 18 1017.2 1016.9 13.0
29/05:30pm 17.1 15.7 16.6 97 0.3 NNE 19 26 10 14 1017.3 1017.0 12.4
29/05:00pm 17.5 16.8 17.3 99 0.1 N 17 22 9 12 1017.5 1017.2 11.8
29/04:30pm 17.7 17.5 17.5 99 0.1 N 15 20 8 11 1017.6 1017.3 11.4
29/04:00pm 17.7 17.8 17.5 99 0.1 N 13 20 7 11 1017.2 1016.9 11.0
29/03:30pm 17.7 16.7 17.5 99 0.1 N 19 22 10 12 1017.6 1017.3 10.2
29/03:00pm 17.5 16.2 17.3 99 0.1 N 20 26 11 14 1017.6 1017.3 9.6
29/02:30pm 17.8 17.6 17.6 99 0.1 N 15 20 8 11 1017.5 1017.2 7.6
29/02:00pm 18.0 18.6 17.8 99 0.1 N 11 17 6 9 1017.6 1017.3 5.6
29/01:30pm 18.1 18.7 17.8 98 0.2 NNW 11 15 6 8 1017.9 1017.6 3.6
29/01:00pm 18.2 19.7 17.7 97 0.3 NW 6 11 3 6 1017.8 1017.5 2.4
29/12:45pm 18.2 19.1 17.6 96 0.4 WNW 9 11 5 6 1018.2 1017.9 1.8
29/12:31pm 18.2 17.9 17.4 95 0.5 NW 15 17 8 9 1018.6 1018.4 1.2
29/12:30pm 18.2 17.9 17.4 95 0.5 NW 15 20 8 11 1018.6 1018.4 1.2
29/12:00pm 18.3 18.5 16.8 91 0.9 NW 11 15 6 8 1018.5 1018.3 0.8
29/11:30am 18.0 17.3 16.5 91 0.9 WNW 15 20 8 11 1018.8 1018.6 0.6
29/11:00am 18.2 15.6 15.8 86 1.4 WNW 24 33 13 18 1019.4 1019.2 0.2
29/10:30am 21.8 16.2 12.1 54 5.5 NW 33 43 18 23 1019.4 1019.2 0.0
29/10:00am 24.1 16.7 8.5 37 8.4 NNW 37 50 20 27 1018.6 1018.4 0.0
29/09:35am 25.3 19.6 8.3 34 9.2 N 28 46 15 25 1018.3 1018.1 0.0
29/09:30am 24.8 19.1 8.3 35 8.9 N 28 37 15 20 1018.3 1018.1 0.0
29/09:00am 24.7 19.1 8.6 36 8.7 NNE 28 35 15 19 1017.8 1017.5 0.0
29/08:30am 23.0 17.3 8.3 39 7.8 NNE 28 37 15 20 1017.6 1017.3 0.0
29/08:00am 22.4 17.9 8.5 41 7.4 NNE 22 30 12 16 1017.8 1017.5 0.0
29/07:30am 22.0 18.4 8.5 42 7.2 NE 17 24 9 13 1017.7 1017.4 0.0
29/07:00am 21.6 18.0 8.5 43 6.9 NNE 17 24 9 13 1017.5 1017.2 0.0
29/06:30am 21.5 18.0 8.7 44 6.8 N 17 20 9 11 1017.6 1017.3 0.0
29/06:00am 21.4 17.8 8.3 43 6.9 N 17 22 9 12 1018.0 1017.7 0.0
29/05:30am 21.8 17.9 8.7 43 7.0 N 19 28 10 15 1018.1 1017.8 0.0
29/05:00am 21.8 17.8 9.0 44 6.8 NNE 20 28 11 15 1018.1 1017.8 0.0
29/04:30am 21.7 18.0 9.3 45 6.7 NNE 19 24 10 13 1017.8 1017.5 0.0
29/04:00am 21.8 18.5 9.7 46 6.6 NNE 17 28 9 15 1017.6 1017.3 0.0
29/03:30am 21.9 18.3 9.8 46 6.6 NNE 19 26 10 14 1017.6 1017.3 0.0
29/03:00am 21.8 18.5 9.7 46 6.6 NNE 17 24 9 13 1017.9 1017.6 0.0
29/02:30am 22.2 18.9 9.7 45 6.8 NNE 17 22 9 12 1018.1 1017.8 0.0
29/02:00am 22.4 19.1 9.6 44 6.9 NNE 17 22 9 12 1018.3 1018.1 0.0
29/01:30am 22.4 19.4 9.2 43 7.1 NNE 15 19 8 10 1018.7 1018.5 0.0
29/01:00am 23.0 19.2 9.0 41 7.5 NNE 19 24 10 13 1018.8 1018.6 0.0
29/12:30am 22.8 19.1 8.1 39 7.8 NNE 17 22 9 12 1018.9 1018.7 0.0
29/12:00am 23.1 18.8 7.2 36 8.3 NNE 19 24 10 13 1019.0 1018.8 0.0
 
Date/Time
EST
Temp
°C
App
Temp
°C
Dew
Point
Rel
Hum
%
Delta-T
°C
Wind Press
QNH
hPa
Press
MSL
hPa
Rain
since 9 am
mm
Dir
 
Spd
km/h
Gust
km/h
Spd
kts
Gust
kts
28/11:30pm 23.0 19.1 7.1 36 8.3 NNE 17 22 9 12 1019.0 1018.8 0.0
28/11:00pm 22.7 18.7 6.5 35 8.3 NE 17 20 9 11 1019.2 1019.0 0.0
28/10:30pm 22.9 18.8 6.2 34 8.6 NNE 17 22 9 12 1019.4 1019.2 0.0
28/10:00pm 22.9 19.3 6.6 35 8.4 NNE 15 19 8 10 1019.7 1019.5 0.0
28/09:30pm 23.4 19.4 6.7 34 8.7 NE 17 22 9 12 1019.4 1019.2 0.0
28/09:00pm 23.2 19.3 6.9 35 8.4 NE 17 20 9 11 1019.3 1019.1 0.0
28/08:30pm 22.9 19.3 6.6 35 8.4 NNE 15 19 8 10 1019.5 1019.3 0.0
28/08:00pm 21.1 18.4 7.3 41 7.1 NE 11 13 6 7 1019.4 1019.2 0.0

Other Formats:

Comma delimited format used in spreadsheet applications
http://www.bom.gov.au/fwo/IDN60801/IDN60801.95704.axf

JavaScript Object Notation format (JSON) in row-major order
http://www.bom.gov.au/fwo/IDN60801/IDN60801.95704.json